Time;durP1;ratioP1;P1;durP2;ratioP2;P2;SDS_P1;SDS_P2;PMS_P1;PMS_P2;Temp;Humidity;BMP_temperature;BMP_pressure;BME280_temperature;BME280_humidity;BME280_pressure;Samples;Min_cycle;Max_cycle;Signal;HPM_P1;HPM_P2
2021/09/09 00:01:53;;;;;;;367.02;77.97;;;;;;;;;;5021626;28;20514;-62
2021/09/09 00:04:20;;;;;;;331.13;73.03;;;;;;;;;;5021063;28;20464;-62
2021/09/09 00:06:47;;;;;;;391.52;78.97;;;;;;;;;;5021802;28;20541;-62
2021/09/09 00:09:13;;;;;;;316.75;76.32;;;;;;;;;;5022657;28;20137;-62
2021/09/09 00:11:40;;;;;;;361.02;78.72;;;;;;;;;;5024755;28;20107;-62
2021/09/09 00:14:06;;;;;;;376.48;79.20;;;;;;;;;;5018413;28;20667;-62
2021/09/09 00:16:33;;;;;;;367.77;79.88;;;;;;;;;;5024764;28;20046;-62
2021/09/09 00:18:59;;;;;;;372.83;81.85;;;;;;;;;;5024747;28;20081;-62
2021/09/09 00:21:26;;;;;;;350.65;81.35;;;;;;;;;;5021124;28;20478;-62
2021/09/09 00:23:52;;;;;;;363.55;81.63;;;;;;;;;;5021440;28;20095;-61
2021/09/09 00:26:19;;;;;;;366.52;82.25;;;;;;;;;;5019567;28;20136;-62
2021/09/09 00:28:46;;;;;;;420.05;84.70;;;;;;;;;;5026359;28;20128;-62
2021/09/09 00:31:13;;;;;;;418.55;83.63;;;;;;;;;;5025894;28;20165;-62
2021/09/09 00:33:39;;;;;;;410.15;81.18;;;;;;;;;;5020672;28;20096;-62
2021/09/09 00:36:06;;;;;;;455.13;86.95;;;;;;;;;;5021138;28;20525;-62
2021/09/09 00:38:33;;;;;;;432.45;86.57;;;;;;;;;;5022282;28;20062;-62
2021/09/09 00:40:59;;;;;;;459.85;83.32;;;;;;;;;;5025407;28;20081;-62
2021/09/09 00:43:26;;;;;;;668.20;97.82;;;;;;;;;;5019156;28;20137;-62
2021/09/09 00:45:54;;;;;;;776.30;102.10;;;;;;;;;;5017863;28;20148;-62
2021/09/09 00:48:20;;;;;;;728.95;102.03;;;;;;;;;;5023170;28;20563;-62
2021/09/09 00:50:47;;;;;;;728.22;98.47;;;;;;;;;;5022620;28;20088;-62
2021/09/09 00:53:14;;;;;;;679.55;95.45;;;;;;;;;;5024758;28;20077;-62
2021/09/09 00:55:40;;;;;;;581.10;87.78;;;;;;;;;;5027801;28;20072;-62
2021/09/09 00:58:08;;;;;;;608.88;89.32;;;;;;;;;;5015862;28;20541;-62
2021/09/09 01:00:36;;;;;;;710.88;100.03;;;;;;;;;;5026095;28;20460;-62
2021/09/09 01:03:03;;;;;;;547.80;83.60;;;;;;;;;;5021305;28;20138;-62
2021/09/09 01:05:31;;;;;;;534.88;87.93;;;;;;;;;;5021571;28;20088;-62
2021/09/09 01:08:00;;;;;;;571.05;89.65;;;;;;;;;;5021916;28;20476;-62
2021/09/09 01:10:27;;;;;;;579.85;90.50;;;;;;;;;;5017531;28;20076;-62
2021/09/09 01:12:53;;;;;;;513.78;88.68;;;;;;;;;;5022062;28;20088;-62
2021/09/09 01:15:21;;;;;;;575.90;92.70;;;;;;;;;;5026913;28;20085;-62
2021/09/09 01:17:48;;;;;;;538.05;89.00;;;;;;;;;;5024157;28;20081;-62
2021/09/09 01:20:14;;;;;;;558.95;92.93;;;;;;;;;;5028604;28;20141;-62
2021/09/09 01:22:41;;;;;;;522.20;91.30;;;;;;;;;;5015376;28;20080;-62
2021/09/09 01:25:09;;;;;;;516.45;91.20;;;;;;;;;;5020366;28;20136;-62
2021/09/09 01:27:36;;;;;;;482.55;89.40;;;;;;;;;;5021305;28;20480;-62
2021/09/09 01:30:03;;;;;;;494.67;89.55;;;;;;;;;;5024763;28;20089;-62
2021/09/09 01:32:30;;;;;;;553.80;94.20;;;;;;;;;;5028031;28;20041;-62
2021/09/09 01:34:57;;;;;;;496.45;92.32;;;;;;;;;;5026874;28;20510;-62
2021/09/09 01:37:23;;;;;;;511.63;92.60;;;;;;;;;;5024878;28;20087;-62
2021/09/09 01:39:50;;;;;;;505.80;93.13;;;;;;;;;;5021287;28;20541;-62
2021/09/09 01:42:17;;;;;;;531.40;95.60;;;;;;;;;;5029722;28;20356;-62
2021/09/09 01:44:43;;;;;;;528.42;94.57;;;;;;;;;;5029246;28;20133;-62
2021/09/09 01:47:10;;;;;;;506.40;96.32;;;;;;;;;;5026887;28;20524;-62
2021/09/09 01:49:36;;;;;;;518.47;97.80;;;;;;;;;;5024113;28;20084;-62
2021/09/09 01:52:03;;;;;;;469.95;94.78;;;;;;;;;;5024016;28;20136;-62
2021/09/09 01:54:29;;;;;;;463.05;96.43;;;;;;;;;;5026553;28;20132;-62
2021/09/09 01:56:56;;;;;;;480.10;95.63;;;;;;;;;;5023346;28;20112;-62
2021/09/09 01:59:22;;;;;;;463.55;98.28;;;;;;;;;;5027829;28;20077;-62
2021/09/09 02:01:49;;;;;;;468.75;95.68;;;;;;;;;;5025950;28;20524;-62
2021/09/09 02:04:16;;;;;;;499.38;100.72;;;;;;;;;;5018633;28;20042;-62
2021/09/09 02:06:43;;;;;;;462.55;97.47;;;;;;;;;;5023279;28;20500;-62
2021/09/09 02:09:09;;;;;;;428.57;96.07;;;;;;;;;;5020787;28;20608;-62
2021/09/09 02:11:36;;;;;;;468.95;100.43;;;;;;;;;;5023493;28;20124;-62
2021/09/09 02:14:03;;;;;;;517.08;102.30;;;;;;;;;;5023950;28;20457;-62
2021/09/09 02:16:29;;;;;;;402.55;93.05;;;;;;;;;;5027005;28;20128;-62
2021/09/09 02:18:56;;;;;;;416.30;90.93;;;;;;;;;;5021587;28;20485;-62
2021/09/09 02:21:23;;;;;;;411.05;96.30;;;;;;;;;;5030747;28;20300;-62
2021/09/09 02:23:50;;;;;;;493.73;102.60;;;;;;;;;;5029346;28;20092;-62
2021/09/09 02:26:17;;;;;;;380.25;91.68;;;;;;;;;;5021173;28;20088;-62
2021/09/09 02:28:44;;;;;;;471.35;100.35;;;;;;;;;;5025822;28;20128;-62
2021/09/09 02:31:10;;;;;;;447.35;101.68;;;;;;;;;;5023090;28;20085;-62
2021/09/09 02:33:37;;;;;;;517.25;108.07;;;;;;;;;;5021101;28;20565;-62
2021/09/09 02:36:04;;;;;;;488.13;104.20;;;;;;;;;;5025977;28;20609;-62
2021/09/09 02:38:31;;;;;;;434.52;103.50;;;;;;;;;;5021811;28;20120;-62
2021/09/09 02:40:59;;;;;;;464.08;103.15;;;;;;;;;;5023832;28;20053;-62
2021/09/09 02:43:26;;;;;;;484.30;106.57;;;;;;;;;;5023224;28;20080;-62
2021/09/09 02:45:52;;;;;;;455.67;103.85;;;;;;;;;;5027781;28;20515;-62
2021/09/09 02:48:19;;;;;;;408.23;102.32;;;;;;;;;;5028488;28;20538;-62
2021/09/09 02:50:45;;;;;;;487.38;109.93;;;;;;;;;;5022868;28;20112;-62
2021/09/09 02:53:12;;;;;;;410.73;101.28;;;;;;;;;;5023977;28;20085;-62
2021/09/09 02:55:38;;;;;;;508.02;111.60;;;;;;;;;;5026686;28;20136;-62
2021/09/09 02:58:05;;;;;;;406.73;97.93;;;;;;;;;;5026087;28;20517;-62
2021/09/09 03:00:31;;;;;;;478.03;108.37;;;;;;;;;;5026353;28;20085;-62
2021/09/09 03:02:59;;;;;;;493.65;113.28;;;;;;;;;;5023305;28;20074;-62
2021/09/09 03:05:26;;;;;;;445.38;108.15;;;;;;;;;;5023292;28;20140;-62
2021/09/09 03:07:52;;;;;;;405.73;105.30;;;;;;;;;;5026486;28;20077;-62
2021/09/09 03:10:19;;;;;;;412.58;106.20;;;;;;;;;;5025169;28;20089;-62
2021/09/09 03:12:46;;;;;;;326.95;96.10;;;;;;;;;;5020380;28;20104;-62
2021/09/09 03:15:12;;;;;;;424.35;107.65;;;;;;;;;;5020235;28;20509;-62
2021/09/09 03:17:39;;;;;;;435.05;110.35;;;;;;;;;;5019198;28;20087;-62
2021/09/09 03:20:06;;;;;;;455.20;114.47;;;;;;;;;;5023371;28;20053;-62
2021/09/09 03:22:33;;;;;;;402.92;108.05;;;;;;;;;;5021414;28;20060;-62
2021/09/09 03:25:00;;;;;;;407.00;106.47;;;;;;;;;;5024782;28;20141;-62
2021/09/09 03:27:26;;;;;;;486.73;115.80;;;;;;;;;;5023645;28;20132;-62
2021/09/09 03:29:53;;;;;;;362.85;106.45;;;;;;;;;;5023876;28;20132;-62
2021/09/09 03:32:19;;;;;;;389.70;110.60;;;;;;;;;;5016097;28;20089;-62
2021/09/09 03:34:46;;;;;;;394.65;112.70;;;;;;;;;;5027790;28;20224;-62
2021/09/09 03:37:12;;;;;;;367.87;109.77;;;;;;;;;;5027480;28;20107;-62
2021/09/09 03:39:39;;;;;;;407.70;115.35;;;;;;;;;;5019671;28;20944;-62
2021/09/09 03:42:05;;;;;;;400.77;119.22;;;;;;;;;;5020093;28;20091;-62
2021/09/09 03:44:32;;;;;;;394.00;120.23;;;;;;;;;;5024783;28;20075;-62
2021/09/09 03:46:58;;;;;;;395.02;119.55;;;;;;;;;;5022255;28;20081;-62
2021/09/09 03:49:25;;;;;;;403.02;114.47;;;;;;;;;;5021936;28;20045;-62
2021/09/09 03:51:52;;;;;;;455.63;120.75;;;;;;;;;;5027525;28;20077;-62
2021/09/09 03:54:19;;;;;;;417.65;116.97;;;;;;;;;;5025979;28;20085;-62
2021/09/09 03:56:45;;;;;;;424.00;117.07;;;;;;;;;;5024160;28;20077;-62
2021/09/09 03:59:12;;;;;;;444.73;115.68;;;;;;;;;;5019475;28;20070;-62
2021/09/09 04:01:39;;;;;;;361.98;106.10;;;;;;;;;;5025283;28;20466;-62
2021/09/09 04:04:06;;;;;;;475.75;116.10;;;;;;;;;;5019303;28;20560;-62
2021/09/09 04:06:32;;;;;;;466.17;116.28;;;;;;;;;;5019358;28;20153;-62
2021/09/09 04:08:59;;;;;;;361.40;84.18;;;;;;;;;;5023191;28;20077;-62
2021/09/09 04:11:28;;;;;;;385.15;87.07;;;;;;;;;;5026645;28;20493;-62
2021/09/09 04:13:54;;;;;;;390.02;86.88;;;;;;;;;;5023156;28;20584;-62
2021/09/09 04:16:21;;;;;;;427.00;97.85;;;;;;;;;;5029243;28;20049;-62
2021/09/09 04:18:48;;;;;;;524.55;122.72;;;;;;;;;;5019737;28;20101;-62
2021/09/09 04:21:14;;;;;;;514.60;121.82;;;;;;;;;;5022592;28;20077;-62
2021/09/09 04:23:41;;;;;;;534.75;124.28;;;;;;;;;;5021278;28;20142;-62
2021/09/09 04:26:07;;;;;;;517.38;125.97;;;;;;;;;;5024385;28;20114;-62
2021/09/09 04:28:34;;;;;;;511.05;127.57;;;;;;;;;;5023059;28;20553;-62
2021/09/09 04:31:00;;;;;;;473.63;124.22;;;;;;;;;;5023057;28;20092;-62
2021/09/09 04:33:27;;;;;;;525.65;126.75;;;;;;;;;;5028552;28;20124;-62
2021/09/09 04:35:54;;;;;;;422.47;114.97;;;;;;;;;;5021272;28;20135;-62
2021/09/09 04:38:20;;;;;;;476.05;126.95;;;;;;;;;;5023496;28;20088;-62
2021/09/09 04:40:47;;;;;;;489.55;128.63;;;;;;;;;;5019826;28;20088;-62
2021/09/09 04:43:13;;;;;;;473.73;130.40;;;;;;;;;;5019625;28;20125;-62
2021/09/09 04:45:40;;;;;;;517.30;139.73;;;;;;;;;;5018170;28;20129;-62
2021/09/09 04:48:06;;;;;;;501.70;134.15;;;;;;;;;;5020822;28;20057;-62
2021/09/09 04:50:33;;;;;;;459.40;127.63;;;;;;;;;;5019122;28;20096;-62
2021/09/09 04:52:59;;;;;;;501.50;135.38;;;;;;;;;;5018396;28;20136;-62
2021/09/09 04:55:26;;;;;;;429.73;125.53;;;;;;;;;;5017234;28;20711;-62
2021/09/09 04:57:52;;;;;;;487.23;136.77;;;;;;;;;;5020337;28;20132;-62
2021/09/09 05:00:19;;;;;;;446.77;134.02;;;;;;;;;;5025227;28;20141;-62
2021/09/09 05:02:45;;;;;;;472.23;135.25;;;;;;;;;;5023355;28;20073;-62
2021/09/09 05:05:13;;;;;;;483.15;140.40;;;;;;;;;;5021258;28;20560;-62
2021/09/09 05:07:40;;;;;;;424.95;132.93;;;;;;;;;;5013012;28;20130;-62
2021/09/09 05:10:07;;;;;;;457.40;138.02;;;;;;;;;;5022644;28;20080;-62
2021/09/09 05:12:34;;;;;;;427.60;130.68;;;;;;;;;;5020631;28;20054;-62
2021/09/09 05:15:02;;;;;;;424.92;133.00;;;;;;;;;;5020215;28;20084;-62
2021/09/09 05:17:28;;;;;;;414.17;132.35;;;;;;;;;;5022670;28;20091;-62
2021/09/09 05:19:54;;;;;;;397.20;133.00;;;;;;;;;;5013960;28;20128;-62
2021/09/09 05:22:21;;;;;;;417.08;131.52;;;;;;;;;;5015175;28;20096;-62
2021/09/09 05:24:47;;;;;;;411.30;133.00;;;;;;;;;;5018660;28;20541;-62
2021/09/09 05:27:14;;;;;;;387.75;126.63;;;;;;;;;;5022390;28;20118;-62
2021/09/09 05:29:41;;;;;;;366.73;126.20;;;;;;;;;;5019652;28;20427;-62
2021/09/09 05:32:07;;;;;;;373.02;125.15;;;;;;;;;;5024596;28;20053;-62
2021/09/09 05:34:34;;;;;;;401.97;133.00;;;;;;;;;;5022445;28;20045;-62
2021/09/09 05:37:00;;;;;;;357.08;123.65;;;;;;;;;;5021465;28;20140;-62
2021/09/09 05:39:27;;;;;;;429.95;131.43;;;;;;;;;;5022528;28;20081;-62
2021/09/09 05:41:54;;;;;;;345.27;122.18;;;;;;;;;;5020735;28;20509;-62
2021/09/09 05:44:21;;;;;;;355.60;125.53;;;;;;;;;;5015272;28;20513;-62
2021/09/09 05:46:47;;;;;;;374.05;124.50;;;;;;;;;;5022222;28;20688;-62
2021/09/09 05:49:14;;;;;;;349.75;123.82;;;;;;;;;;5018469;28;20142;-62
2021/09/09 05:51:41;;;;;;;321.13;114.13;;;;;;;;;;5019951;28;20077;-62
2021/09/09 05:54:07;;;;;;;304.48;113.38;;;;;;;;;;5020222;28;20088;-62
2021/09/09 05:56:34;;;;;;;328.63;116.43;;;;;;;;;;5021711;28;20053;-62
2021/09/09 05:59:01;;;;;;;276.98;104.30;;;;;;;;;;5024124;28;20476;-62
2021/09/09 06:01:30;;;;;;;329.52;119.57;;;;;;;;;;5016319;28;20153;-62
2021/09/09 06:03:58;;;;;;;304.08;114.80;;;;;;;;;;5024047;28;20049;-62
2021/09/09 06:06:25;;;;;;;293.27;109.78;;;;;;;;;;4988985;28;20121;-62
2021/09/09 06:08:52;;;;;;;275.98;108.47;;;;;;;;;;4985147;28;20122;-62
2021/09/09 06:11:18;;;;;;;265.47;103.40;;;;;;;;;;4984194;28;20086;-62
2021/09/09 06:13:45;;;;;;;263.63;103.60;;;;;;;;;;4987793;28;20166;-62
2021/09/09 06:16:11;;;;;;;269.80;104.82;;;;;;;;;;4979684;28;20055;-62
2021/09/09 06:18:38;;;;;;;251.80;98.43;;;;;;;;;;4981333;28;20525;-62
2021/09/09 06:21:05;;;;;;;241.25;97.03;;;;;;;;;;4982587;28;20086;-62
2021/09/09 06:23:32;;;;;;;243.95;96.65;;;;;;;;;;4979348;28;20105;-62
2021/09/09 06:26:14;;;;;;;241.77;98.90;;;;;;;;;;4983898;28;20054;-63
2021/09/09 06:28:41;;;;;;;245.20;95.85;;;;;;;;;;4982125;28;20159;-62
2021/09/09 06:31:07;;;;;;;247.30;95.32;;;;;;;;;;4983272;28;20498;-62
2021/09/09 06:33:34;;;;;;;213.80;92.13;;;;;;;;;;4984376;28;20093;-62
2021/09/09 06:36:01;;;;;;;208.68;88.65;;;;;;;;;;4984900;28;20137;-62
2021/09/09 06:38:27;;;;;;;201.63;88.70;;;;;;;;;;4984084;28;20137;-62
2021/09/09 06:40:54;;;;;;;201.60;86.00;;;;;;;;;;4989762;28;20042;-62
2021/09/09 06:43:20;;;;;;;202.32;81.75;;;;;;;;;;4977983;28;20146;-62
2021/09/09 06:45:47;;;;;;;177.10;78.07;;;;;;;;;;4983727;28;20071;-62
2021/09/09 06:48:14;;;;;;;160.55;74.63;;;;;;;;;;4981978;28;20058;-62
2021/09/09 06:50:40;;;;;;;165.55;73.05;;;;;;;;;;4985387;28;20526;-62
2021/09/09 06:53:07;;;;;;;163.02;75.35;;;;;;;;;;4983050;28;20177;-62
2021/09/09 06:55:33;;;;;;;170.02;76.70;;;;;;;;;;4981831;28;20133;-62
2021/09/09 06:58:00;;;;;;;156.65;72.30;;;;;;;;;;4978560;28;20074;-62
2021/09/09 07:00:27;;;;;;;;;;;;;;;;;;4978813;28;20133;-62
2021/09/09 07:02:54;;;;;;;143.38;68.70;;;;;;;;;;4983971;28;19995;-62
2021/09/09 07:05:21;;;;;;;137.70;62.35;;;;;;;;;;4981701;28;20065;-62
2021/09/09 07:07:48;;;;;;;127.03;63.20;;;;;;;;;;4984133;28;20136;-62
2021/09/09 07:10:18;;;;;;;128.95;63.15;;;;;;;;;;4981980;28;20565;-62
2021/09/09 07:12:45;;;;;;;120.45;63.58;;;;;;;;;;4981178;28;20088;-62
2021/09/09 07:15:11;;;;;;;124.28;61.83;;;;;;;;;;4982715;28;20510;-62
2021/09/09 07:17:38;;;;;;;119.05;60.40;;;;;;;;;;4985326;28;20078;-62
2021/09/09 07:20:05;;;;;;;101.25;56.08;;;;;;;;;;4981223;28;20488;-62
2021/09/09 07:22:31;;;;;;;107.18;55.78;;;;;;;;;;4985960;28;20137;-62
2021/09/09 07:24:59;;;;;;;97.97;52.23;;;;;;;;;;4977760;28;20050;-62
2021/09/09 07:27:25;;;;;;;91.60;49.20;;;;;;;;;;4981737;28;20717;-62
2021/09/09 07:29:52;;;;;;;91.63;50.28;;;;;;;;;;4984774;28;20130;-62
2021/09/09 07:32:18;;;;;;;86.35;47.20;;;;;;;;;;4984787;28;20101;-62
2021/09/09 07:34:45;;;;;;;89.53;48.60;;;;;;;;;;4978664;28;20082;-62
2021/09/09 07:37:11;;;;;;;80.03;46.03;;;;;;;;;;4978557;28;20090;-62
2021/09/09 07:39:38;;;;;;;86.68;45.80;;;;;;;;;;4978737;28;20082;-62
2021/09/09 07:42:04;;;;;;;74.57;44.40;;;;;;;;;;4978685;28;20176;-62
2021/09/09 07:44:30;;;;;;;76.07;42.45;;;;;;;;;;4982022;28;20558;-62
2021/09/09 07:46:58;;;;;;;;;;;;;;;;;;4983650;28;20089;-62
2021/09/09 07:49:25;;;;;;;68.72;40.30;;;;;;;;;;4985130;28;19968;-62
2021/09/09 07:51:51;;;;;;;73.22;41.28;;;;;;;;;;4972081;28;20090;-63
2021/09/09 07:54:18;;;;;;;68.63;39.13;;;;;;;;;;4977216;28;20185;-62
2021/09/09 07:56:45;;;;;;;65.13;38.78;;;;;;;;;;4978043;28;20779;-62
2021/09/09 07:59:11;;;;;;;67.15;36.58;;;;;;;;;;4983020;28;20588;-63
2021/09/09 08:01:38;;;;;;;66.03;36.58;;;;;;;;;;4985620;28;20138;-62
2021/09/09 08:04:06;;;;;;;59.53;37.00;;;;;;;;;;4975905;28;20054;-62
2021/09/09 08:06:32;;;;;;;60.72;36.15;;;;;;;;;;4980517;28;20125;-62
2021/09/09 08:08:59;;;;;;;63.10;35.85;;;;;;;;;;4976047;28;20047;-62
2021/09/09 08:11:25;;;;;;;67.78;38.92;;;;;;;;;;4985585;28;20062;-62
2021/09/09 08:13:52;;;;;;;59.83;37.17;;;;;;;;;;4980987;28;20085;-62
2021/09/09 08:16:20;;;;;;;63.17;35.42;;;;;;;;;;4985143;28;20098;-62
2021/09/09 08:18:47;;;;;;;59.65;34.08;;;;;;;;;;4979015;28;20054;-62
2021/09/09 08:21:15;;;;;;;61.72;35.25;;;;;;;;;;4982029;28;20174;-62
2021/09/09 08:23:41;;;;;;;50.25;33.20;;;;;;;;;;4983222;28;20066;-62
2021/09/09 08:26:09;;;;;;;53.33;33.17;;;;;;;;;;4976704;28;20043;-63
2021/09/09 08:28:36;;;;;;;52.38;32.05;;;;;;;;;;4986917;28;20145;-62
2021/09/09 08:31:03;;;;;;;53.25;32.85;;;;;;;;;;4980305;28;20046;-62
2021/09/09 08:33:30;;;;;;;49.20;32.25;;;;;;;;;;4975793;28;20097;-62
2021/09/09 08:35:56;;;;;;;52.43;30.10;;;;;;;;;;4977120;28;20093;-62
2021/09/09 08:38:23;;;;;;;51.97;32.27;;;;;;;;;;4976358;28;20322;-63
2021/09/09 08:40:50;;;;;;;54.35;31.17;;;;;;;;;;4982817;28;20137;-62
2021/09/09 08:43:17;;;;;;;49.42;30.83;;;;;;;;;;4983063;28;20129;-62
2021/09/09 08:45:46;;;;;;;44.23;28.50;;;;;;;;;;4972103;28;20101;-62
2021/09/09 08:48:15;;;;;;;51.55;27.92;;;;;;;;;;4976210;28;20051;-62
2021/09/09 08:50:43;;;;;;;43.40;27.08;;;;;;;;;;4982228;28;20050;-62
2021/09/09 08:53:11;;;;;;;40.92;27.48;;;;;;;;;;4982030;28;20081;-62
2021/09/09 08:55:39;;;;;;;41.97;26.13;;;;;;;;;;4981442;28;20217;-62
2021/09/09 08:58:06;;;;;;;38.40;23.85;;;;;;;;;;4976470;28;20085;-62
2021/09/09 09:00:32;;;;;;;37.50;25.05;;;;;;;;;;4970487;28;20089;-62
2021/09/09 09:02:59;;;;;;;36.70;24.67;;;;;;;;;;4976990;28;20090;-62
2021/09/09 09:05:27;;;;;;;41.60;22.55;;;;;;;;;;4979355;28;20062;-62
2021/09/09 09:08:00;;;;;;;39.28;23.17;;;;;;;;;;4983927;28;20090;-62
2021/09/09 09:10:27;;;;;;;35.47;22.65;;;;;;;;;;4983977;28;20089;-63
2021/09/09 09:12:54;;;;;;;35.70;23.38;;;;;;;;;;4980216;28;20888;-62
2021/09/09 09:15:26;;;;;;;39.85;23.77;;;;;;;;;;4977269;28;20047;-62
2021/09/09 09:18:02;;;;;;;37.25;23.17;;;;;;;;;;4973712;28;20133;-62
2021/09/09 09:20:38;;;;;;;36.45;22.75;;;;;;;;;;4983937;28;20123;-62
2021/09/09 09:23:08;;;;;;;35.47;23.23;;;;;;;;;;4984502;28;20133;-62
2021/09/09 09:25:54;;;;;;;36.08;23.75;;;;;;;;;;4982664;28;20419;-62
2021/09/09 09:28:39;;;;;;;34.88;22.23;;;;;;;;;;4975167;28;20142;-62
2021/09/09 09:31:07;;;;;;;33.40;23.00;;;;;;;;;;4973525;28;20538;-63
2021/09/09 09:33:35;;;;;;;34.65;22.27;;;;;;;;;;4982467;28;20054;-63
2021/09/09 09:36:12;;;;;;;32.47;22.35;;;;;;;;;;4986457;28;20078;-62
2021/09/09 09:38:39;;;;;;;29.00;20.95;;;;;;;;;;4980478;28;20130;-62
2021/09/09 09:41:05;;;;;;;31.70;21.17;;;;;;;;;;4978149;28;20086;-63
2021/09/09 09:43:32;;;;;;;28.98;19.73;;;;;;;;;;4982805;28;20078;-62
2021/09/09 09:46:01;;;;;;;25.27;18.40;;;;;;;;;;4982182;28;20488;-63
2021/09/09 09:48:29;;;;;;;33.35;19.80;;;;;;;;;;4984331;28;20524;-62
2021/09/09 09:50:56;;;;;;;23.60;18.10;;;;;;;;;;4980165;28;20125;-63
2021/09/09 09:53:22;;;;;;;31.60;20.40;;;;;;;;;;4982250;28;20058;-62
2021/09/09 09:55:50;;;;;;;30.92;18.55;;;;;;;;;;4977936;28;20108;-62
2021/09/09 09:58:16;;;;;;;;;;;;;;;;;;4977820;28;20518;-63
2021/09/09 10:00:43;;;;;;;35.47;17.00;;;;;;;;;;4984202;28;20010;-63
2021/09/09 10:03:09;;;;;;;32.22;20.13;;;;;;;;;;4982732;28;20073;-62
2021/09/09 10:05:37;;;;;;;28.98;17.80;;;;;;;;;;4986135;28;20069;-63
2021/09/09 10:08:04;;;;;;;30.23;19.27;;;;;;;;;;4989259;28;20462;-63
2021/09/09 10:10:31;;;;;;;29.40;17.98;;;;;;;;;;4978402;28;20105;-63
2021/09/09 10:12:58;;;;;;;26.73;16.95;;;;;;;;;;4979106;28;20166;-63
2021/09/09 10:15:25;;;;;;;24.67;18.48;;;;;;;;;;4985773;28;20461;-63
2021/09/09 10:17:56;;;;;;;29.95;19.08;;;;;;;;;;4985538;28;20047;-63
2021/09/09 10:20:40;;;;;;;33.87;20.33;;;;;;;;;;4980783;28;20054;-63
2021/09/09 10:23:12;;;;;;;32.50;21.48;;;;;;;;;;4987865;28;20322;-63
2021/09/09 10:25:47;;;;;;;31.65;18.85;;;;;;;;;;4979113;28;20070;-63
2021/09/09 10:28:33;;;;;;;28.58;17.90;;;;;;;;;;4986641;28;20137;-63
2021/09/09 10:31:07;;;;;;;28.90;19.50;;;;;;;;;;4985905;28;20050;-63
2021/09/09 10:33:35;;;;;;;29.50;19.63;;;;;;;;;;4978843;28;20386;-62
2021/09/09 10:36:01;;;;;;;30.20;20.65;;;;;;;;;;4975729;28;20129;-62
2021/09/09 10:38:32;;;;;;;32.42;21.50;;;;;;;;;;4982299;28;20762;-63
2021/09/09 10:41:00;;;;;;;31.88;20.90;;;;;;;;;;4980861;28;20085;-63
2021/09/09 10:43:26;;;;;;;27.35;20.17;;;;;;;;;;4983105;28;20094;-63
2021/09/09 10:46:04;;;;;;;32.60;22.02;;;;;;;;;;4982306;28;20557;-63
2021/09/09 10:48:31;;;;;;;30.52;22.05;;;;;;;;;;4981125;28;20495;-63
2021/09/09 10:51:02;;;;;;;39.78;22.00;;;;;;;;;;4979395;28;20043;-63
2021/09/09 10:53:35;;;;;;;32.95;21.40;;;;;;;;;;4979430;28;20051;-63
2021/09/09 10:56:09;;;;;;;29.85;21.67;;;;;;;;;;4987239;28;20541;-63
2021/09/09 10:58:36;;;;;;;31.05;22.05;;;;;;;;;;4983409;28;20136;-63
2021/09/09 11:01:05;;;;;;;33.10;21.85;;;;;;;;;;4986581;28;20085;-63
2021/09/09 11:03:42;;;;;;;28.83;21.27;;;;;;;;;;4980598;28;20662;-63
2021/09/09 11:06:17;;;;;;;32.67;21.75;;;;;;;;;;4981332;28;20268;-63
2021/09/09 11:08:44;;;;;;;34.45;21.80;;;;;;;;;;4982206;28;20137;-63
2021/09/09 11:11:15;;;;;;;31.88;22.20;;;;;;;;;;4986815;28;20077;-63
2021/09/09 11:13:42;;;;;;;33.47;22.88;;;;;;;;;;4984398;28;20089;-63
2021/09/09 11:16:18;;;;;;;34.38;22.10;;;;;;;;;;4979613;28;20532;-63
2021/09/09 11:18:45;;;;;;;31.13;23.65;;;;;;;;;;4981097;28;20102;-62
2021/09/09 11:21:15;;;;;;;33.83;22.23;;;;;;;;;;4979014;28;20088;-63
2021/09/09 11:23:42;;;;;;;33.55;23.13;;;;;;;;;;4986070;28;20474;-63
2021/09/09 11:26:09;;;;;;;31.60;22.48;;;;;;;;;;4984222;28;20054;-63
2021/09/09 11:28:36;;;;;;;;;;;;;;;;;;4981379;28;20053;-63
2021/09/09 11:31:08;;;;;;;31.08;19.98;;;;;;;;;;4983863;28;19989;-62
2021/09/09 11:33:46;;;;;;;26.98;20.17;;;;;;;;;;4984231;28;20078;-63
2021/09/09 11:36:13;;;;;;;26.20;18.45;;;;;;;;;;4977542;28;20050;-63
2021/09/09 11:38:40;;;;;;;31.48;21.25;;;;;;;;;;4984486;28;20051;-63
2021/09/09 11:41:11;;;;;;;32.25;20.63;;;;;;;;;;4979707;28;20082;-63
2021/09/09 11:43:39;;;;;;;30.98;20.88;;;;;;;;;;4979452;28;20082;-63
2021/09/09 11:46:06;;;;;;;34.40;23.45;;;;;;;;;;4971561;28;20058;-63
2021/09/09 11:48:33;;;;;;;36.15;24.15;;;;;;;;;;4982922;28;20108;-62
2021/09/09 11:51:00;;;;;;;29.25;20.83;;;;;;;;;;4981394;28;20074;-63
2021/09/09 11:53:27;;;;;;;26.25;18.70;;;;;;;;;;4981917;28;20465;-63
2021/09/09 11:55:55;;;;;;;25.63;17.70;;;;;;;;;;4979819;28;20050;-63
2021/09/09 11:58:38;;;;;;;26.17;18.17;;;;;;;;;;4985115;28;20097;-63
2021/09/09 12:01:06;;;;;;;34.00;22.02;;;;;;;;;;4980495;28;20302;-63
2021/09/09 12:03:34;;;;;;;32.58;22.23;;;;;;;;;;4983043;28;20065;-63
2021/09/09 12:06:01;;;;;;;30.23;21.33;;;;;;;;;;4986442;28;20513;-63
2021/09/09 12:08:28;;;;;;;35.00;22.92;;;;;;;;;;5001385;28;20089;-63
2021/09/09 12:11:11;;;;;;;33.30;23.37;;;;;;;;;;5003725;28;20481;-63
2021/09/09 12:13:39;;;;;;;26.23;20.83;;;;;;;;;;4997675;28;20157;-63
2021/09/09 12:16:13;;;;;;;32.50;22.30;;;;;;;;;;5000613;28;20077;-63
2021/09/09 12:18:41;;;;;;;28.83;21.27;;;;;;;;;;5002683;28;20317;-63
2021/09/09 12:21:13;;;;;;;30.35;22.33;;;;;;;;;;5000840;28;20082;-63
2021/09/09 12:23:55;;;;;;;27.05;20.13;;;;;;;;;;4992115;28;20077;-63
2021/09/09 12:26:21;;;;;;;29.88;22.88;;;;;;;;;;4999042;28;20074;-62
2021/09/09 12:28:48;;;;;;;30.80;20.85;;;;;;;;;;4997903;28;20497;-63
2021/09/09 12:31:14;;;;;;;27.43;19.83;;;;;;;;;;5002467;28;20092;-63
2021/09/09 12:33:41;;;;;;;;;;;;;;;;;;5000345;28;20089;-63
2021/09/09 12:36:12;;;;;;;28.00;21.08;;;;;;;;;;5003211;28;19965;-63
2021/09/09 12:38:43;;;;;;;31.15;21.15;;;;;;;;;;5002563;28;20081;-63
2021/09/09 12:41:30;;;;;;;29.05;20.42;;;;;;;;;;4998343;28;20129;-63
2021/09/09 12:44:00;;;;;;;27.40;19.45;;;;;;;;;;5003541;28;20493;-63
2021/09/09 12:46:28;;;;;;;25.65;18.98;;;;;;;;;;4998991;28;20506;-63
2021/09/09 12:49:02;;;;;;;26.88;17.98;;;;;;;;;;5001327;28;20041;-63
2021/09/09 12:51:30;;;;;;;23.58;17.60;;;;;;;;;;4999254;28;20100;-63
2021/09/09 12:53:56;;;;;;;26.10;17.85;;;;;;;;;;4997030;28;20128;-63
2021/09/09 12:56:22;;;;;;;29.83;18.23;;;;;;;;;;4991182;28;20097;-63
2021/09/09 12:58:49;;;;;;;28.33;20.42;;;;;;;;;;4996427;28;20137;-63
2021/09/09 13:01:16;;;;;;;27.83;19.47;;;;;;;;;;5000172;28;20085;-63
2021/09/09 13:03:42;;;;;;;28.42;20.20;;;;;;;;;;4999266;28;20054;-63
2021/09/09 13:06:10;;;;;;;31.02;19.73;;;;;;;;;;5013231;28;20066;-63
2021/09/09 13:08:37;;;;;;;27.30;19.45;;;;;;;;;;5015590;28;20167;-63
2021/09/09 13:11:07;;;;;;;25.10;16.67;;;;;;;;;;5016846;28;20085;-63
2021/09/09 13:13:33;;;;;;;24.08;16.90;;;;;;;;;;5023719;28;20132;-63
2021/09/09 13:16:01;;;;;;;24.45;15.30;;;;;;;;;;5021952;28;20409;-63
2021/09/09 13:18:38;;;;;;;22.38;16.60;;;;;;;;;;5026309;28;20377;-63
2021/09/09 13:21:06;;;;;;;24.65;17.48;;;;;;;;;;5026685;28;20143;-63
2021/09/09 13:23:32;;;;;;;28.05;15.68;;;;;;;;;;5021209;28;20138;-63
2021/09/09 13:25:59;;;;;;;22.33;15.20;;;;;;;;;;5027850;28;20924;-63
2021/09/09 13:28:25;;;;;;;26.38;17.75;;;;;;;;;;5029224;28;20207;-63
2021/09/09 13:30:52;;;;;;;28.40;18.17;;;;;;;;;;5024182;28;20055;-63
2021/09/09 13:33:18;;;;;;;20.27;16.27;;;;;;;;;;5025348;28;20049;-63
2021/09/09 13:35:46;;;;;;;22.53;16.40;;;;;;;;;;5019890;28;20046;-63
2021/09/09 13:38:13;;;;;;;25.98;16.95;;;;;;;;;;5032143;28;20311;-63
2021/09/09 13:40:39;;;;;;;20.20;15.87;;;;;;;;;;5026031;28;20528;-63
2021/09/09 13:43:06;;;;;;;24.48;17.58;;;;;;;;;;5028685;28;20366;-63
2021/09/09 13:45:33;;;;;;;27.67;16.90;;;;;;;;;;5019732;28;20085;-63
2021/09/09 13:47:59;;;;;;;25.23;15.52;;;;;;;;;;5026509;28;20053;-63
2021/09/09 13:50:26;;;;;;;21.02;14.70;;;;;;;;;;5021853;28;20096;-63
2021/09/09 13:52:55;;;;;;;21.70;16.15;;;;;;;;;;5022155;28;20476;-63
2021/09/09 13:55:21;;;;;;;25.33;15.93;;;;;;;;;;5026685;28;20141;-63
2021/09/09 13:57:48;;;;;;;19.77;14.90;;;;;;;;;;5027590;28;20049;-63
2021/09/09 14:00:15;;;;;;;25.65;16.13;;;;;;;;;;5023779;28;20140;-63
2021/09/09 14:02:41;;;;;;;21.20;16.00;;;;;;;;;;5018273;28;20397;-63
2021/09/09 14:05:10;;;;;;;;;;;;;;;;;;5024283;28;20058;-63
2021/09/09 14:07:41;;;;;;;25.65;17.55;;;;;;;;;;5021727;28;19945;-63
2021/09/09 14:10:08;;;;;;;24.88;18.50;;;;;;;;;;5022252;28;20092;-63
2021/09/09 14:12:35;;;;;;;;;;;;;;;;;;5027956;28;20132;-62